Time;durP1;ratioP1;P1;durP2;ratioP2;P2;SDS_P1;SDS_P2;PMS_P1;PMS_P2;Temp;Humidity;BMP_temperature;BMP_pressure;BME280_temperature;BME280_humidity;BME280_pressure;Samples;Min_cycle;Max_cycle;Signal;HPM_P1;HPM_P2
2021/10/12 00:01:09;;;;;;;3.23;1.13;;;;;;;6.84;82.28;99185.73;1644227;86;20973;-74
2021/10/12 00:03:36;;;;;;;3.75;1.17;;;;;;;6.80;82.34;99185.45;1616208;86;21542;-74
2021/10/12 00:06:03;;;;;;;1.27;0.80;;;;;;;6.78;82.40;99183.39;1604005;86;21260;-75
2021/10/12 00:08:31;;;;;;;4.67;0.98;;;;;;;6.80;82.52;99191.94;1644579;86;20900;-74
2021/10/12 00:10:57;;;;;;;4.17;1.32;;;;;;;6.82;82.54;99190.13;1635678;86;26382;-74
2021/10/12 00:13:25;;;;;;;2.05;1.00;;;;;;;6.86;82.60;99189.12;1635610;86;20935;-74
2021/10/12 00:15:52;;;;;;;2.12;0.93;;;;;;;6.88;82.57;99185.98;1635807;86;21612;-74
2021/10/12 00:18:19;;;;;;;2.27;0.90;;;;;;;6.91;82.53;99173.34;1611373;86;21191;-74
2021/10/12 00:20:46;;;;;;;4.17;1.12;;;;;;;6.91;82.55;99170.28;1612691;87;20997;-74
2021/10/12 00:23:13;;;;;;;2.05;0.70;;;;;;;6.73;82.54;99128.25;1636911;86;21006;-74
2021/10/12 00:25:40;;;;;;;4.90;1.00;;;;;;;6.89;82.40;99156.98;1629173;86;20925;-75
2021/10/12 00:28:07;;;;;;;7.10;1.47;;;;;;;6.81;82.32;99154.73;1631581;86;20971;-74
2021/10/12 00:30:34;;;;;;;2.55;0.95;;;;;;;6.73;82.27;99156.78;1640308;86;21535;-74
2021/10/12 00:33:01;;;;;;;1.77;0.80;;;;;;;6.63;82.30;99158.05;1642186;86;21061;-74
2021/10/12 00:35:28;;;;;;;4.55;1.10;;;;;;;6.52;82.31;99153.75;1620108;86;21047;-74
2021/10/12 00:37:55;;;;;;;5.78;1.30;;;;;;;6.41;82.35;99155.03;1623928;86;21020;-74
2021/10/12 00:40:22;;;;;;;2.77;1.00;;;;;;;6.31;82.44;99148.51;1631668;86;21063;-74
2021/10/12 00:42:49;;;;;;;3.05;1.02;;;;;;;6.23;82.40;99154.44;1635854;86;21025;-74
2021/10/12 00:45:17;;;;;;;2.95;0.90;;;;;;;6.16;82.51;99147.78;1646776;86;20982;-75
2021/10/12 00:48:00;;;;;;;1.90;1.00;;;;;;;6.09;82.57;99148.94;1647248;86;20963;-74
2021/10/12 00:50:31;;;;;;;2.08;0.93;;;;;;;6.01;82.59;99138.41;1621616;88;21038;-75
2021/10/12 00:52:58;;;;;;;2.50;1.00;;;;;;;5.95;82.67;99143.82;1644653;86;21623;-74
2021/10/12 00:55:28;;;;;;;2.90;1.10;;;;;;;5.88;82.68;99141.05;1635421;86;21913;-74
2021/10/12 00:57:55;;;;;;;3.50;1.20;;;;;;;5.84;82.72;99142.05;1633401;86;21538;-74
2021/10/12 01:00:23;;;;;;;4.08;1.40;;;;;;;5.79;82.88;99134.89;1633724;86;20947;-74
2021/10/12 01:02:52;;;;;;;2.55;1.00;;;;;;;5.75;82.86;99135.92;1632333;86;21038;-74
2021/10/12 01:05:23;;;;;;;;;;;;;;;5.70;82.84;99128.77;1633727;86;20914;-74
2021/10/12 01:07:50;;;;;;;2.50;1.05;;;;;;;5.66;82.92;99132.35;1634006;86;21228;-74
2021/10/12 01:10:18;;;;;;;3.70;1.07;;;;;;;5.58;82.85;99137.83;1632246;86;21545;-75
2021/10/12 01:12:45;;;;;;;6.58;1.52;;;;;;;5.53;83.03;99137.98;1633713;86;20919;-75
2021/10/12 01:15:12;;;;;;;2.37;1.17;;;;;;;5.55;83.23;99136.20;1634495;86;21474;-74
2021/10/12 01:17:40;;;;;;;;;;;;;;;5.60;83.41;99135.59;1636879;86;20939;-74
2021/10/12 01:20:11;;;;;;;3.62;1.20;;;;;;;5.72;83.65;99134.75;1636539;86;26919;-74
2021/10/12 01:22:47;;;;;;;6.45;1.55;;;;;;;5.80;83.64;99130.13;1637192;85;21455;-74
2021/10/12 01:25:16;;;;;;;3.10;1.17;;;;;;;5.86;83.36;99118.23;1627938;86;20907;-74
2021/10/12 01:27:43;;;;;;;6.08;1.32;;;;;;;5.89;83.27;99118.57;1610391;88;21491;-74
2021/10/12 01:30:12;;;;;;;6.12;1.67;;;;;;;5.87;83.25;99103.06;1633830;86;20963;-75
2021/10/12 01:32:42;;;;;;;2.40;1.05;;;;;;;5.86;83.27;99103.98;1630248;86;21176;-75
2021/10/12 01:35:10;;;;;;;4.95;1.60;;;;;;;5.86;83.29;99103.14;1609831;87;21610;-75
2021/10/12 01:37:44;;;;;;;2.17;0.98;;;;;;;5.83;83.25;99097.16;1639009;86;20939;-74
2021/10/12 01:40:13;;;;;;;4.03;1.10;;;;;;;5.82;83.24;99097.21;1635826;86;20975;-74
2021/10/12 01:42:40;;;;;;;2.08;0.90;;;;;;;5.81;83.28;99090.35;1644197;86;21493;-75
2021/10/12 01:45:10;;;;;;;2.35;0.68;;;;;;;5.79;83.21;99081.78;1595235;88;21080;-75
2021/10/12 01:47:39;;;;;;;5.95;1.00;;;;;;;5.77;83.21;99080.99;1633622;86;21016;-75
2021/10/12 01:50:10;;;;;;;3.67;0.80;;;;;;;5.73;83.16;99085.45;1597094;86;20972;-74
2021/10/12 01:52:37;;;;;;;2.75;0.75;;;;;;;5.68;83.10;99087.36;1601264;87;21089;-74
2021/10/12 01:55:07;;;;;;;4.22;0.90;;;;;;;5.64;83.13;99095.33;1614586;86;21043;-75
2021/10/12 01:57:34;;;;;;;1.67;0.75;;;;;;;5.59;83.20;99093.73;1640226;86;21136;-75
2021/10/12 02:00:01;;;;;;;1.75;0.90;;;;;;;5.55;83.23;99092.17;1632377;86;21501;-74
2021/10/12 02:02:28;;;;;;;2.83;0.70;;;;;;;5.53;83.27;99095.72;1629867;86;21021;-75
2021/10/12 02:04:55;;;;;;;2.83;0.90;;;;;;;5.48;83.22;99098.47;1644180;86;20994;-74
2021/10/12 02:07:22;;;;;;;4.00;1.05;;;;;;;5.44;83.23;99090.43;1642494;86;20946;-74
2021/10/12 02:09:49;;;;;;;4.45;1.50;;;;;;;5.38;83.32;99086.77;1634043;86;21090;-74
2021/10/12 02:12:15;;;;;;;3.80;1.52;;;;;;;5.33;83.41;99079.16;1636505;86;20996;-74
2021/10/12 02:14:43;;;;;;;3.80;1.70;;;;;;;5.29;83.51;99084.06;1636447;86;20986;-75
2021/10/12 02:17:13;;;;;;;3.40;1.27;;;;;;;5.27;83.60;99083.73;1636509;86;26557;-74
2021/10/12 02:19:40;;;;;;;5.53;1.20;;;;;;;5.23;83.70;99075.20;1632591;86;20917;-74
2021/10/12 02:22:09;;;;;;;7.20;1.40;;;;;;;5.20;83.68;99085.67;1641231;86;20960;-74
2021/10/12 02:24:39;;;;;;;3.87;1.42;;;;;;;5.17;83.67;99062.48;1642572;85;20959;-74
2021/10/12 02:27:06;;;;;;;4.03;1.30;;;;;;;5.16;83.80;99064.23;1643317;86;20903;-74
2021/10/12 02:29:33;;;;;;;5.67;1.30;;;;;;;5.15;83.81;99065.15;1628345;86;20967;-74
2021/10/12 02:32:00;;;;;;;;;;;;;;;5.16;83.91;99055.64;1634001;86;20979;-74
2021/10/12 02:34:27;;;;;;;5.67;1.35;;;;;;;5.12;83.93;99049.70;1632616;86;21072;-74
2021/10/12 02:36:55;;;;;;;3.12;1.42;;;;;;;5.10;83.89;99049.39;1635210;86;22150;-74
2021/10/12 02:39:22;;;;;;;4.10;1.15;;;;;;;5.08;83.95;99050.73;1635837;86;20964;-74
2021/10/12 02:41:49;;;;;;;4.10;1.17;;;;;;;5.06;83.93;99052.52;1637135;86;20933;-74
2021/10/12 02:44:19;;;;;;;8.13;1.70;;;;;;;4.99;83.96;99032.95;1633115;86;21341;-74
2021/10/12 02:46:45;;;;;;;3.92;1.00;;;;;;;5.02;83.98;99047.06;1632938;86;22343;-74
2021/10/12 02:49:12;;;;;;;3.83;1.30;;;;;;;5.03;84.15;99048.74;1636987;86;21021;-75
2021/10/12 02:51:39;;;;;;;7.15;1.20;;;;;;;5.02;84.05;99045.77;1628607;86;21045;-74
2021/10/12 02:54:05;;;;;;;6.33;1.50;;;;;;;5.01;84.09;99041.48;1642808;85;21002;-74
2021/10/12 02:56:32;;;;;;;5.43;1.53;;;;;;;5.01;84.17;99046.65;1631130;86;20975;-74
2021/10/12 02:59:01;;;;;;;4.25;1.57;;;;;;;5.02;84.25;99040.59;1629603;86;21482;-74
2021/10/12 03:01:28;;;;;;;4.75;1.02;;;;;;;5.05;84.32;99037.90;1629752;86;20910;-74
2021/10/12 03:03:55;;;;;;;9.55;1.45;;;;;;;5.08;84.39;99030.48;1623893;86;20959;-74
2021/10/12 03:06:24;;;;;;;4.87;1.20;;;;;;;5.09;84.39;99030.41;1596779;86;20938;-74
2021/10/12 03:08:52;;;;;;;6.92;1.40;;;;;;;5.07;84.33;99019.72;1628753;86;20913;-74
2021/10/12 03:11:19;;;;;;;4.50;1.70;;;;;;;5.04;84.32;99018.11;1626709;86;21152;-74
2021/10/12 03:13:46;;;;;;;6.53;1.22;;;;;;;5.01;84.36;99013.02;1601519;86;21532;-74
2021/10/12 03:16:13;;;;;;;5.37;1.52;;;;;;;4.97;84.40;99016.63;1633461;86;22019;-74
2021/10/12 03:18:42;;;;;;;4.05;1.37;;;;;;;4.99;84.56;99027.77;1638353;86;21561;-74
2021/10/12 03:21:13;;;;;;;4.17;1.10;;;;;;;5.08;84.81;99031.31;1627605;86;20959;-74
2021/10/12 03:23:40;;;;;;;4.42;1.30;;;;;;;5.16;84.98;99016.81;1613233;87;21078;-74
2021/10/12 03:26:09;;;;;;;6.17;0.95;;;;;;;5.26;84.83;99022.48;1637452;86;20998;-74
2021/10/12 03:28:36;;;;;;;5.33;1.22;;;;;;;5.33;84.79;99008.43;1616715;86;21478;-74
2021/10/12 03:31:04;;;;;;;6.42;1.20;;;;;;;5.36;84.71;99009.61;1621224;87;28233;-74
2021/10/12 03:33:31;;;;;;;6.78;1.20;;;;;;;5.37;84.49;99006.11;1621533;87;20963;-74
2021/10/12 03:36:12;;;;;;;2.50;0.98;;;;;;;5.37;84.44;98998.34;1605665;87;21090;-74
2021/10/12 03:38:28;;;;;;;3.77;1.05;;;;;;;5.35;84.40;98993.69;1630735;86;21434;-74
2021/10/12 03:40:56;;;;;;;5.25;1.00;;;;;;;5.31;84.43;98990.81;1628130;86;20982;-74
2021/10/12 03:43:23;;;;;;;5.30;1.60;;;;;;;5.27;84.46;98989.25;1619978;86;28002;-74
2021/10/12 03:45:51;;;;;;;3.20;1.00;;;;;;;5.24;84.46;98990.66;1619973;86;21578;-74
2021/10/12 03:48:18;;;;;;;6.03;1.25;;;;;;;5.22;84.51;98979.05;1621332;86;22785;-74
2021/10/12 03:50:45;;;;;;;6.30;1.00;;;;;;;5.21;84.65;98981.69;1626176;86;21025;-74
2021/10/12 03:53:16;;;;;;;3.75;1.10;;;;;;;5.18;84.71;98972.75;1626438;86;20931;-74
2021/10/12 03:55:41;;;;;;;4.22;1.05;;;;;;;5.14;84.73;98968.98;1621500;86;20963;-74
2021/10/12 03:58:11;;;;;;;4.17;0.98;;;;;;;5.14;84.76;98990.98;1617999;86;21010;-74
2021/10/12 04:00:38;;;;;;;5.67;1.27;;;;;;;5.15;84.81;98995.28;1613123;86;22420;-74
2021/10/12 04:03:07;;;;;;;4.03;1.70;;;;;;;5.18;84.80;98988.27;1616085;86;21038;-74
2021/10/12 04:05:34;;;;;;;2.83;1.10;;;;;;;5.16;84.78;98991.78;1612031;87;21490;-74
2021/10/12 04:08:02;;;;;;;5.53;1.17;;;;;;;5.18;84.73;98988.27;1613757;86;21002;-74
2021/10/12 04:10:29;;;;;;;5.35;1.77;;;;;;;5.19;84.86;98984.80;1615835;86;21039;-74
2021/10/12 04:12:56;;;;;;;4.58;1.10;;;;;;;5.21;84.91;98980.39;1613286;86;21728;-74
2021/10/12 04:15:23;;;;;;;3.37;1.10;;;;;;;5.23;84.94;98979.89;1614526;86;20935;-74
2021/10/12 04:17:50;;;;;;;4.80;1.70;;;;;;;5.26;85.00;98975.89;1616304;86;21474;-74
2021/10/12 04:20:17;;;;;;;1.98;0.70;;;;;;;5.28;84.99;98974.10;1614997;86;20980;-74
2021/10/12 04:22:48;;;;;;;6.12;1.27;;;;;;;5.30;84.91;98982.66;1614693;86;21545;-74
2021/10/12 04:25:15;;;;;;;7.25;1.60;;;;;;;5.31;85.04;98980.00;1611159;87;21155;-74
2021/10/12 04:27:42;;;;;;;4.58;1.12;;;;;;;5.36;85.11;98959.13;1614983;87;20975;-74
2021/10/12 04:30:11;;;;;;;4.83;1.40;;;;;;;5.39;85.10;98953.83;1597318;87;20978;-74
2021/10/12 04:32:38;;;;;;;4.40;1.60;;;;;;;5.38;84.96;98960.76;1608007;86;20992;-74
2021/10/12 04:35:14;;;;;;;6.15;1.30;;;;;;;5.39;84.89;98962.89;1605405;86;20894;-74
2021/10/12 04:37:41;;;;;;;4.00;1.70;;;;;;;5.39;84.95;98959.01;1609533;86;21719;-74
2021/10/12 04:40:10;;;;;;;8.58;1.60;;;;;;;5.38;84.90;98949.56;1612993;86;21000;-75
2021/10/12 04:42:37;;;;;;;;;;;;;;;5.36;84.85;98944.89;1617350;86;20948;-74
2021/10/12 04:45:07;;;;;;;4.12;1.15;;;;;;;5.33;84.91;98946.30;1616697;86;20467;-74
2021/10/12 04:47:35;;;;;;;2.83;1.02;;;;;;;5.29;84.83;98948.59;1617102;87;21533;-74
2021/10/12 04:50:15;;;;;;;;;;;;;;;5.24;84.88;98942.33;1634116;86;21200;-78
2021/10/12 04:52:45;;;;;;;4.03;1.00;;;;;;;5.20;84.91;98945.08;1616820;87;20129;-74
2021/10/12 04:55:12;;;;;;;2.15;1.07;;;;;;;5.13;84.86;98936.70;1618537;86;21589;-74
2021/10/12 04:57:39;;;;;;;3.60;1.25;;;;;;;5.06;84.86;98941.25;1622411;86;20976;-74
2021/10/12 05:00:08;;;;;;;2.85;0.88;;;;;;;5.00;84.93;98944.07;1619952;87;21003;-74
2021/10/12 05:02:36;;;;;;;5.33;1.27;;;;;;;4.96;85.07;98936.47;1621331;86;21141;-74
2021/10/12 05:05:06;;;;;;;4.62;1.22;;;;;;;4.91;85.04;98941.83;1618157;87;21600;-74
2021/10/12 05:07:33;;;;;;;3.30;1.30;;;;;;;4.91;85.10;98943.13;1615680;86;21507;-74
2021/10/12 05:10:02;;;;;;;5.40;1.37;;;;;;;4.89;85.11;98935.86;1622148;87;21919;-74
2021/10/12 05:12:37;;;;;;;4.60;1.35;;;;;;;4.87;85.16;98937.23;1618076;86;20931;-75
2021/10/12 05:15:08;;;;;;;2.02;0.80;;;;;;;4.88;85.17;98926.43;1636262;86;21780;-76
2021/10/12 05:17:46;;;;;;;8.03;1.30;;;;;;;4.86;85.11;98930.80;1622919;86;20971;-74
2021/10/12 05:20:07;;;;;;;3.80;1.07;;;;;;;4.84;85.13;98925.67;1623168;86;20972;-76
2021/10/12 05:22:36;;;;;;;2.45;0.90;;;;;;;4.85;85.20;98929.13;1622109;86;20994;-75
2021/10/12 05:25:05;;;;;;;4.75;1.12;;;;;;;4.85;85.19;98926.55;1625909;86;21065;-74
2021/10/12 05:27:34;;;;;;;2.45;0.82;;;;;;;4.90;85.34;98922.02;1620316;86;21912;-73
2021/10/12 05:30:04;;;;;;;7.08;1.37;;;;;;;4.97;85.23;98928.66;1618045;86;21140;-74
2021/10/12 05:32:31;;;;;;;8.28;1.17;;;;;;;5.01;85.27;98930.22;1617988;86;21067;-75
2021/10/12 05:34:59;;;;;;;5.40;1.40;;;;;;;5.02;85.21;98929.34;1615756;86;20983;-74
2021/10/12 05:37:25;;;;;;;4.58;1.15;;;;;;;5.06;85.32;98925.73;1622550;86;20971;-75
2021/10/12 05:40:02;;;;;;;6.00;1.17;;;;;;;5.19;85.37;98930.46;1628671;86;21112;-75
2021/10/12 05:42:25;;;;;;;3.33;1.10;;;;;;;5.21;85.17;98928.63;1616671;86;21387;-75
2021/10/12 05:45:01;;;;;;;2.62;1.17;;;;;;;5.20;85.14;98934.72;1634621;85;20930;-75
2021/10/12 05:47:23;;;;;;;2.77;1.05;;;;;;;5.15;85.12;98933.16;1630680;86;20991;-72
2021/10/12 05:49:51;;;;;;;7.97;2.63;;;;;;;5.14;85.21;98934.05;1625079;86;20924;-74
2021/10/12 05:52:23;;;;;;;234.40;21.93;;;;;;;5.16;85.27;98932.25;1625747;86;20935;-74
2021/10/12 05:55:24;;;;;;;;;;;;;;;;;;;;;
2021/10/12 05:58:06;;;;;;;6.45;2.52;;;;;;;5.41;85.80;98935.20;1585628;88;20971;-74
2021/10/12 06:00:24;;;;;;;6.87;2.05;;;;;;;6.08;86.07;98928.23;1590361;88;20933;-74
2021/10/12 06:02:51;;;;;;;8.20;3.45;;;;;;;6.75;85.86;98919.31;1594600;88;21510;-74
2021/10/12 06:05:18;;;;;;;7.37;3.55;;;;;;;7.30;85.59;98924.13;1565574;88;21068;-75
2021/10/12 06:07:50;;;;;;;12.50;5.35;;;;;;;7.81;85.14;98927.78;1592346;88;21668;-79
2021/10/12 06:10:16;;;;;;;6.75;3.70;;;;;;;8.17;84.66;98926.03;1596422;88;21088;-74
2021/10/12 06:12:43;;;;;;;7.40;4.35;;;;;;;8.36;84.22;98922.05;1565649;89;21083;-76
2021/10/12 06:15:10;;;;;;;7.30;3.47;;;;;;;8.62;84.13;98929.38;1592788;88;21541;-77
2021/10/12 06:17:37;;;;;;;3.72;1.20;;;;;;;8.89;84.06;98922.35;1577387;88;21024;-77
2021/10/12 06:20:13;;;;;;;12.98;2.10;;;;;;;9.17;84.12;98922.55;1578768;88;20952;-76
2021/10/12 06:22:40;;;;;;;4.37;1.15;;;;;;;9.52;84.21;98927.61;1586493;88;20965;-76
2021/10/12 06:25:08;;;;;;;37.15;7.58;;;;;;;9.82;83.88;98929.40;1593392;88;21621;-77
2021/10/12 06:27:37;;;;;;;25.32;4.58;;;;;;;10.01;83.77;98930.03;1589336;88;21008;-76
2021/10/12 06:30:19;;;;;;;235.97;29.98;;;;;;;10.03;83.29;98925.58;1587693;88;21545;-76
2021/10/12 06:32:50;;;;;;;9.68;1.42;;;;;;;9.89;83.33;98925.53;1590088;88;20963;-75
2021/10/12 06:35:16;;;;;;;63.73;8.65;;;;;;;9.61;83.02;98929.69;1588337;88;21044;-75
2021/10/12 06:37:46;;;;;;;48.60;6.50;;;;;;;9.37;83.23;98941.46;1594268;88;20991;-79
2021/10/12 06:40:14;;;;;;;34.10;6.42;;;;;;;9.07;82.59;98950.00;1587281;89;20947;-75
2021/10/12 06:42:41;;;;;;;34.90;13.15;;;;;;;8.73;83.05;98951.77;1587925;88;21159;-74
2021/10/12 06:45:11;;;;;;;34.83;13.15;;;;;;;8.56;83.26;98954.88;1589195;88;20906;-75
2021/10/12 06:47:41;;;;;;;54.98;15.05;;;;;;;8.41;83.64;98963.02;1588289;88;20971;-75
2021/10/12 06:50:09;;;;;;;37.55;10.85;;;;;;;8.41;83.96;98966.91;1585567;88;20999;-74
2021/10/12 06:52:36;;;;;;;170.72;34.98;;;;;;;8.43;84.02;98963.75;1556890;89;21053;-75
2021/10/12 06:55:05;;;;;;;160.48;31.50;;;;;;;8.42;84.06;98962.92;1589787;88;21164;-79
2021/10/12 06:57:42;;;;;;;47.25;12.33;;;;;;;8.41;83.97;98964.31;1604306;86;21050;-76
2021/10/12 07:00:14;;;;;;;66.02;21.20;;;;;;;8.32;83.74;98968.62;1620471;86;20943;-75
2021/10/12 07:02:49;;;;;;;68.50;20.90;;;;;;;8.23;83.74;98965.59;1619467;86;20967;-74
2021/10/12 07:05:20;;;;;;;59.30;11.57;;;;;;;8.21;83.87;98959.62;1588125;89;21018;-76
2021/10/12 07:07:52;;;;;;;27.25;8.75;;;;;;;8.16;83.67;98964.20;1578572;89;22518;-74
2021/10/12 07:10:40;;;;;;;32.38;7.22;;;;;;;8.18;83.69;98963.67;1616865;86;20993;-77
2021/10/12 07:13:12;;;;;;;7.87;2.00;;;;;;;8.30;84.07;98959.15;1617450;86;27055;-76
2021/10/12 07:15:42;;;;;;;10.93;2.40;;;;;;;8.42;83.79;98962.08;1613166;86;20935;-75
2021/10/12 07:18:11;;;;;;;23.35;5.08;;;;;;;8.47;83.50;98957.49;1587125;88;21035;-73
2021/10/12 07:20:41;;;;;;;6.28;2.12;;;;;;;8.41;83.21;98951.31;1584443;88;21466;-75
2021/10/12 07:23:08;;;;;;;38.60;8.20;;;;;;;8.34;83.11;98958.99;1586399;89;21006;-74
2021/10/12 07:25:38;;;;;;;12.98;4.28;;;;;;;8.26;83.15;98951.56;1562599;89;22005;-73
2021/10/12 07:28:07;;;;;;;6.72;3.05;;;;;;;8.25;83.33;98955.93;1616841;87;20942;-74
2021/10/12 07:30:35;;;;;;;9.28;2.98;;;;;;;8.43;83.48;98955.95;1593803;86;21018;-72
2021/10/12 07:33:04;;;;;;;3.10;1.87;;;;;;;8.45;83.32;98959.32;1619534;86;21141;-74
2021/10/12 07:35:33;;;;;;;3.17;1.40;;;;;;;8.52;83.29;98952.91;1619009;86;21110;-74
2021/10/12 07:38:04;;;;;;;3.65;1.30;;;;;;;8.66;83.54;98941.78;1616279;87;20915;-74
2021/10/12 07:40:44;;;;;;;5.25;1.40;;;;;;;8.83;83.52;98947.41;1586488;87;20987;-74
2021/10/12 07:43:17;;;;;;;3.12;1.00;;;;;;;8.98;83.61;98942.69;1560599;89;20964;-73
2021/10/12 07:45:49;;;;;;;4.25;0.90;;;;;;;8.96;83.05;98943.22;1563902;89;20985;-74
2021/10/12 07:48:26;;;;;;;2.62;1.20;;;;;;;9.03;83.10;98951.56;1558007;90;21044;-74
2021/10/12 07:50:58;;;;;;;1.62;0.90;;;;;;;9.02;82.81;98955.94;1541642;91;21165;-74
2021/10/12 07:53:28;;;;;;;1.80;0.90;;;;;;;9.02;82.67;98952.47;1561245;90;21040;-74
2021/10/12 07:56:17;;;;;;;2.50;1.22;;;;;;;8.86;82.48;98961.56;1567141;88;21595;-75
2021/10/12 07:59:18;;;;;;;1.82;0.80;;;;;;;8.80;82.72;98961.89;1583221;89;21556;-75
2021/10/12 08:01:44;;;;;;;5.22;1.30;;;;;;;8.81;82.81;98953.98;1561465;89;21100;-75
2021/10/12 08:04:15;;;;;;;2.62;1.12;;;;;;;8.77;82.70;98956.85;1597433;88;20979;-74
2021/10/12 08:06:51;;;;;;;1.77;0.90;;;;;;;8.73;82.62;98954.38;1602872;87;21184;-75
2021/10/12 08:09:18;;;;;;;2.72;1.45;;;;;;;8.68;82.63;98950.33;1590175;87;20972;-76
2021/10/12 08:11:47;;;;;;;3.62;1.77;;;;;;;8.63;82.57;98947.98;1572372;89;21736;-75
2021/10/12 08:14:36;;;;;;;17.40;3.83;;;;;;;8.66;82.71;98950.43;1579495;88;20998;-77
2021/10/12 08:16:59;;;;;;;19.35;3.87;;;;;;;8.78;82.96;98955.92;1592007;88;20928;-73
2021/10/12 08:19:29;;;;;;;9.70;2.58;;;;;;;8.96;82.80;98954.94;1592109;88;20998;-76
2021/10/12 08:22:07;;;;;;;30.25;9.28;;;;;;;9.07;82.52;98951.77;1597419;87;20915;-76
2021/10/12 08:24:38;;;;;;;28.73;5.80;;;;;;;9.32;83.02;98953.89;1592743;87;21248;-75
2021/10/12 08:27:03;;;;;;;137.47;27.17;;;;;;;9.54;82.58;98954.40;1597149;88;21015;-75
2021/10/12 08:29:30;;;;;;;58.17;12.35;;;;;;;9.47;82.03;98952.23;1599339;88;20985;-75
2021/10/12 08:32:01;;;;;;;53.20;13.30;;;;;;;9.56;82.54;98953.86;1593307;89;20993;-75
2021/10/12 08:34:29;;;;;;;32.93;9.48;;;;;;;9.99;82.98;98943.61;1585193;88;20995;-75
2021/10/12 08:36:59;;;;;;;122.42;24.40;;;;;;;10.43;83.08;98946.75;1597603;87;21138;-74
2021/10/12 08:39:31;;;;;;;35.28;9.33;;;;;;;10.72;82.51;98949.39;1603047;86;20942;-75
2021/10/12 08:42:06;;;;;;;230.75;37.20;;;;;;;10.78;81.91;98949.02;1629457;86;21442;-76
2021/10/12 08:44:58;;;;;;;135.22;24.37;;;;;;;10.88;81.76;98939.70;1630594;86;20994;-72
2021/10/12 08:47:29;;;;;;;145.70;27.52;;;;;;;10.98;81.84;98944.75;1629999;86;20955;-75
2021/10/12 08:50:02;;;;;;;93.15;17.85;;;;;;;11.17;81.78;98939.68;1628954;86;21156;-76
2021/10/12 08:52:30;;;;;;;37.80;9.10;;;;;;;11.27;81.43;98936.88;1607798;86;21458;-74
2021/10/12 08:55:03;;;;;;;20.15;6.00;;;;;;;11.11;80.88;98934.84;1634779;86;20963;-74
2021/10/12 08:57:40;;;;;;;109.57;24.75;;;;;;;10.97;80.85;98944.36;1635436;86;20997;-74
2021/10/12 09:00:14;;;;;;;157.18;31.15;;;;;;;10.82;80.71;98947.92;1632361;86;21169;-75
2021/10/12 09:03:16;;;;;;;53.05;14.58;;;;;;;10.66;80.54;98952.38;1628274;86;21577;-71
2021/10/12 09:06:03;;;;;;;95.30;21.17;;;;;;;10.63;80.80;98944.73;1566129;89;21029;-74
2021/10/12 09:08:35;;;;;;;77.35;18.48;;;;;;;10.89;81.14;98943.98;1562383;89;20990;-75
2021/10/12 09:11:04;;;;;;;14.58;3.10;;;;;;;10.95;80.60;98957.14;1576676;88;21054;-74
2021/10/12 09:13:46;;;;;;;45.98;9.35;;;;;;;11.01;80.50;98938.94;1575382;88;20998;-76
2021/10/12 09:16:33;;;;;;;;;;;;;;;;;;;;;
2021/10/12 09:18:56;;;;;;;34.55;9.58;;;;;;;10.90;80.27;98945.69;1557764;89;21767;-74
2021/10/12 09:21:38;;;;;;;119.22;18.42;;;;;;;11.04;79.99;98944.01;1565612;89;21009;-74
2021/10/12 09:24:32;;;;;;;262.55;48.63;;;;;;;11.00;79.89;98943.33;1526205;90;20993;-73
2021/10/12 09:27:20;;;;;;;66.25;12.18;;;;;;;11.10;80.07;98942.31;1545212;90;21557;-75
2021/10/12 09:29:49;;;;;;;11.63;2.15;;;;;;;11.20;79.88;98944.71;1559809;90;21104;-74
2021/10/12 09:32:31;;;;;;;253.27;46.58;;;;;;;11.14;79.34;98932.03;1561257;90;21027;-72
2021/10/12 09:35:19;;;;;;;;;;;;;;;;;;;;;
2021/10/12 09:37:39;;;;;;;32.30;7.17;;;;;;;11.13;79.26;98941.66;1555370;89;20988;-72
2021/10/12 09:40:21;;;;;;;45.12;8.23;;;;;;;11.03;79.01;98938.39;1575856;88;20955;-73
2021/10/12 09:42:49;;;;;;;153.93;28.00;;;;;;;10.94;79.26;98941.94;1610560;87;21175;-74
2021/10/12 09:45:16;;;;;;;;;;;;;;;11.00;79.47;98935.97;1639574;86;21065;-72
2021/10/12 09:47:43;;;;;;;65.32;10.60;;;;;;;10.97;78.95;98940.44;1610543;87;20144;-73
2021/10/12 09:50:14;;;;;;;;;;;;;;;10.80;78.57;98955.00;1638423;86;20963;-73
2021/10/12 09:52:47;;;;;;;94.03;19.10;;;;;;;10.56;78.28;98953.84;1605519;87;20712;-71
2021/10/12 09:55:18;;;;;;;186.90;30.17;;;;;;;10.46;78.66;98957.01;1637278;86;20975;-75
2021/10/12 09:57:49;;;;;;;150.95;24.90;;;;;;;10.36;78.54;98963.69;1621960;87;20971;-73
2021/10/12 10:00:18;;;;;;;145.38;23.73;;;;;;;10.26;78.32;98969.05;1647383;85;21469;-73
2021/10/12 10:02:45;;;;;;;262.77;45.43;;;;;;;10.25;78.67;98966.05;1618369;86;21032;-77
2021/10/12 10:05:21;;;;;;;63.33;10.85;;;;;;;10.24;78.45;98974.81;1645536;85;20975;-72
2021/10/12 10:08:00;;;;;;;124.45;25.35;;;;;;;10.05;77.41;98968.06;1644183;85;21051;-74
2021/10/12 10:10:21;;;;;;;30.15;7.08;;;;;;;9.79;77.25;98979.11;1644110;86;20954;-74
2021/10/12 10:12:53;;;;;;;;;;;;;;;9.51;75.61;98983.23;1598632;87;20966;-72
2021/10/12 10:15:25;;;;;;;1.00;0.47;;;;;;;9.24;76.23;98992.54;1617299;86;20159;-74
2021/10/12 10:18:04;;;;;;;0.90;0.65;;;;;;;8.82;75.00;99009.48;1632884;86;20973;-71
2021/10/12 10:20:36;;;;;;;2.00;0.70;;;;;;;8.18;74.21;99007.88;1607451;86;21584;-71
2021/10/12 10:23:03;;;;;;;0.70;0.50;;;;;;;7.62;75.02;99018.75;1632058;86;21498;-73
2021/10/12 10:25:43;;;;;;;0.72;0.62;;;;;;;7.30;75.71;99022.81;1632605;86;20938;-72
2021/10/12 10:28:29;;;;;;;2.42;0.80;;;;;;;7.05;76.31;99019.63;1636288;86;20963;-72
2021/10/12 10:31:05;;;;;;;2.17;1.10;;;;;;;6.68;76.56;99021.22;1634481;86;21077;-74
2021/10/12 10:33:36;;;;;;;2.20;1.55;;;;;;;6.55;76.86;99035.61;1632525;86;21583;-73
2021/10/12 10:36:20;;;;;;;2.60;1.72;;;;;;;6.57;77.04;99024.72;1632782;86;21499;-72
2021/10/12 10:38:49;;;;;;;3.05;1.98;;;;;;;6.59;76.94;99031.99;1633287;86;21069;-71
2021/10/12 10:41:19;;;;;;;3.77;2.35;;;;;;;6.68;76.94;99039.38;1634129;86;20935;-70
2021/10/12 10:43:55;;;;;;;2.02;1.42;;;;;;;6.65;76.69;99029.13;1643342;85;21030;-73
2021/10/12 10:46:53;;;;;;;3.42;1.90;;;;;;;6.57;76.69;99029.91;1622067;86;23338;-72
2021/10/12 10:49:25;;;;;;;3.08;1.25;;;;;;;6.58;76.96;99027.69;1639584;85;21025;-74
2021/10/12 10:52:02;;;;;;;2.65;1.45;;;;;;;6.53;76.81;99028.36;1634563;85;20959;-75
2021/10/12 10:54:47;;;;;;;1.87;1.00;;;;;;;6.52;77.05;99027.95;1635593;86;20985;-72
2021/10/12 10:57:19;;;;;;;1.72;1.10;;;;;;;6.70;77.10;99023.30;1632494;85;21537;-75
2021/10/12 11:00:20;;;;;;;1.47;1.00;;;;;;;6.87;77.09;99031.20;1605321;86;21124;-74
2021/10/12 11:02:48;;;;;;;5.12;1.60;;;;;;;6.99;76.09;99038.06;1603326;87;21047;-74
2021/10/12 11:05:44;;;;;;;2.85;1.57;;;;;;;6.83;76.42;99038.71;1583259;88;21120;-72
2021/10/12 11:08:26;;;;;;;2.40;1.32;;;;;;;6.65;76.67;99045.54;1553248;89;21023;-73
2021/10/12 11:11:15;;;;;;;1.52;0.80;;;;;;;6.32;77.06;99043.05;1553676;90;20950;-72
2021/10/12 11:13:53;;;;;;;1.70;0.90;;;;;;;6.08;77.56;99022.83;1557483;90;21926;-74
2021/10/12 11:16:33;;;;;;;3.20;0.70;;;;;;;6.11;78.02;99020.14;1550389;89;20956;-75
2021/10/12 11:19:12;;;;;;;1.80;0.70;;;;;;;6.26;78.24;99009.97;1599108;87;20971;-79
2021/10/12 11:22:00;;;;;;;;;;;;;;;6.57;78.27;99008.70;1598561;87;21017;-77
2021/10/12 11:25:12;;;;;;;;;;;;;;;6.84;77.97;99014.47;1597616;87;20141;-74
2021/10/12 11:27:59;;;;;;;0.90;0.62;;;;;;;7.12;78.34;99005.48;1566532;89;21304;-78
2021/10/12 11:30:40;;;;;;;4.45;1.00;;;;;;;7.24;77.75;99015.30;1557959;89;20921;-76
2021/10/12 11:33:09;;;;;;;3.58;1.72;;;;;;;7.29;78.17;99003.42;1540458;91;20958;-73
2021/10/12 11:36:37;;;;;;;2.00;0.65;;;;;;;7.37;78.39;98987.87;1496648;94;21134;-71
2021/10/12 11:39:06;;;;;;;3.95;1.10;;;;;;;7.52;78.68;98975.09;1475553;95;21129;-72
2021/10/12 11:41:49;;;;;;;2.22;1.15;;;;;;;7.79;78.80;98971.19;1518693;92;21194;-73
2021/10/12 11:44:25;;;;;;;2.65;1.67;;;;;;;8.15;79.20;98975.53;1524124;91;21543;-73
2021/10/12 11:47:02;;;;;;;2.10;1.30;;;;;;;8.56;79.44;98971.33;1524295;91;21496;-71
2021/10/12 11:49:58;;;;;;;1.25;0.70;;;;;;;8.92;79.46;98961.24;1525477;92;21007;-72
2021/10/12 11:52:34;;;;;;;2.57;0.60;;;;;;;9.34;79.49;98959.88;1524344;92;21002;-73
2021/10/12 11:55:15;;;;;;;1.80;0.80;;;;;;;9.43;78.45;98946.33;1521368;93;22052;-75
2021/10/12 11:57:43;;;;;;;3.37;0.60;;;;;;;9.47;78.77;98945.25;1500936;93;21160;-72
2021/10/12 12:00:20;;;;;;;2.02;1.00;;;;;;;9.54;78.80;98943.97;1515070;91;21074;-72
2021/10/12 12:02:47;;;;;;;1.12;0.62;;;;;;;9.63;78.98;98944.79;1521732;91;20958;-70
2021/10/12 12:05:20;;;;;;;2.83;0.70;;;;;;;9.68;78.96;98937.16;1506913;93;21028;-73